• Join FlightAware (Why Join?)
  • Login
  • US Flag 
04:03AM EST


 

Airport Tracker/Info


-or-


 

Live Flight TrackerFlight Track Log ✈ FFT532 ✈ 08-Jul-2013 ✈ KDEN - KMDW

Flight Track Log - Related Links

Times and Time Zones

All times are in EDT time to prevent confusion due to time zone crossing. See the FFT532 flight status page for this flight to view local times or setup timezone preferences in your user account.

Time Position Orientation Groundspeed Altitude Reporting Facility
EDT Latitude Longitude Course Direction KTS MPH feet Rate Location/Type
09:20AM 39.8650 -104.6600 90° East 23 26  Level FlightAware
09:24AM 39.8370 -104.6420 154° Southeast 176 203 5,400 1,380 Climbing FlightAware
09:25AM 39.8130 -104.6320 162° South 189 217 6,500 1,560 Climbing FlightAware
09:25AM 39.7930 -104.6110 141° Southeast 212 244 7,000 1,020 Climbing FlightAware
09:26AM 39.7740 -104.5900 140° Southeast 238 274 7,400 1,080 Climbing FlightAware
09:26AM 39.7450 -104.5590 141° Southeast 281 323 8,000 1,320 Climbing FlightAware
09:27AM 39.7210 -104.5220 130° Southeast 310 357 8,700 2,040 Climbing FlightAware
09:27AM 39.7160 -104.4920 102° East 314 361 9,500 1,980 Climbing FlightAware
09:28AM 39.7080 -104.4140 98° East 344 396 10,600 1,560 Climbing FlightAware
09:28AM 39.6980 -104.3190 98° East 365 420 11,700 840 Climbing FlightAware
09:29AM 39.6890 -104.2380 98° East 366 421 11,800 60 Climbing FlightAware
09:30AM 39.6790 -104.1440 98° East 364 419 11,800 480 Level FlightAware
09:31AM 39.6950 -104.0220 80° East 368 423 12,700 1,380 Climbing FlightAware
09:31AM 39.7390 -103.9550 49° Northeast 378 435 14,100 2,100 Climbing FlightAware
09:32AM 39.7860 -103.8810 50° Northeast 390 449 15,600 1,980 Climbing FlightAware
09:32AM 39.7970 -103.8490 66° East 399 459 16,000 2,220 Climbing FlightAware
09:33AM 39.8060 -103.7490 83° East 397 457 17,700 1,980 Climbing FlightAware
09:34AM 39.8150 -103.6460 83° East 403 464 18,900 1,500 Climbing FlightAware
09:34AM 39.8230 -103.5450 84° East 406 467 19,900 1,740 Climbing FlightAware
09:35AM 39.8310 -103.4430 84° East 408 470 21,400 1,860 Climbing FlightAware
09:36AM 39.8390 -103.3560 83° East 418 481 22,300 1,620 Climbing FlightAware
09:36AM 39.8470 -103.2550 84° East 423 487 23,500 1,560 Climbing FlightAware
09:37AM 39.8550 -103.1550 84° East 433 498 24,400 1,500 Climbing FlightAware
09:38AM 39.8640 -103.0450 84° East 438 504 25,500 1,260 Climbing FlightAware
09:38AM 39.8720 -102.9380 84° East 449 517 26,200 1,200 Climbing FlightAware
09:39AM 39.8810 -102.8260 84° East 453 521 27,200 1,380 Climbing FlightAware
09:40AM 39.8890 -102.7180 84° East 457 526 28,100 1,260 Climbing FlightAware
09:40AM 39.8950 -102.6380 84° East 462 532 28,700 960 Climbing FlightAware
09:41AM 39.9040 -102.5170 84° East 473 544 29,300 900 Climbing FlightAware
09:42AM 39.9120 -102.4060 85° East 479 551 30,000 1,200 Climbing FlightAware
09:42AM 39.9210 -102.2840 84° East 479 551 31,000 1,440 Climbing FlightAware
09:43AM 39.9300 -102.1590 85° East 476 548 32,100 1,380 Climbing FlightAware
09:44AM 39.9380 -102.0480 85° East 478 550 32,900 1,260 Climbing FlightAware
09:44AM 39.9460 -101.9390 84° East 474 545 33,800 1,080 Climbing FlightAware
09:45AM 39.9520 -101.8440 85° East 478 550 34,300 900 Climbing FlightAware
09:46AM 39.9640 -101.6660 85° East 483 556 35,300 660 Climbing FlightAware
09:47AM 39.9750 -101.5120 85° East 483 556 35,600 1,020 Climbing FlightAware
09:48AM 39.9820 -101.3910 86° East 473 544 37,000 1,080 Climbing FlightAware
09:48AM 39.9890 -101.2950 85° East 473 544 37,000  Level FlightAware
09:49AM 39.9940 -101.2100 86° East 473 544 37,000  Level FlightAware
09:50AM 40.0020 -101.0910 85° East 473 544 37,000  Level FlightAware
09:50AM 40.0080 -101.0020 85° East 473 544 37,000  Level FlightAware
09:51AM 40.0160 -100.8910 85° East 473 544 37,000  Level FlightAware
09:52AM 40.0220 -100.7990 85° East 473 544 37,000  Level FlightAware
09:53AM 40.0320 -100.6530 85° East 473 544 37,000  Level FlightAware
09:53AM 40.0400 -100.5350 85° East 473 544 37,000  Level FlightAware
09:54AM 40.0450 -100.4530 85° East 473 544 37,000  Level FlightAware
09:55AM 40.0550 -100.3020 85° East 473 544 37,000  Level FlightAware
09:56AM 40.0630 -100.1810 85° East 473 544 37,000  Level FlightAware
09:57AM 40.0690 -100.0920 85° East 473 544 37,000  Level FlightAware
09:57AM 40.0750 -99.9970 85° East 473 544 37,000 -60 Level FlightAware
09:58AM 40.0853 -99.5589 85° East 465 535 36,900  Descending Denver Center
10:04AM 40.1280 -98.6110 85° East 465 535 37,000  Climbing FlightAware
10:05AM 40.1330 -98.5230 86° East 465 535 37,000  Level FlightAware
10:05AM 40.1380 -98.3740 87° East 465 535 37,000  Level FlightAware
10:06AM 40.1420 -98.2760 87° East 465 535 37,000  Level FlightAware
10:07AM 40.1480 -98.0990 87° East 462 532 37,000  Level FlightAware
10:08AM 40.1520 -97.9850 87° East 460 529 37,000 -120 Level FlightAware
10:08AM 40.1560 -97.8700 87° East 460 529 36,900 -120 Descending FlightAware
10:09AM 40.1600 -97.7470 88° East 461 531 36,900 60 Level FlightAware
10:10AM 40.1640 -97.6360 87° East 463 533 37,000  Climbing FlightAware
10:11AM 40.1700 -97.4320 88° East 464 534 37,000  Level FlightAware
10:12AM 40.1730 -97.3150 88° East 462 532 37,000  Level FlightAware
10:12AM 40.1770 -97.2030 87° East 460 529 37,000  Level FlightAware
10:13AM 40.1800 -97.0830 88° East 460 529 37,000 -120 Level FlightAware
10:14AM 40.1830 -96.9680 88° East 459 528 36,900 -120 Descending FlightAware
10:14AM 40.1860 -96.8650 88° East 459 528 36,900 60 Level FlightAware
10:15AM 40.1890 -96.7320 88° East 460 529 37,000 60 Climbing FlightAware
10:16AM 40.1910 -96.6250 89° East 459 528 37,000  Level FlightAware
10:17AM 40.1940 -96.5010 88° East 458 527 37,000  Level FlightAware
10:17AM 40.1970 -96.3910 88° East 456 525 37,000  Level FlightAware
10:18AM 40.1990 -96.2810 89° East 454 522 37,000 -120 Level FlightAware
10:19AM 40.2110 -96.1560 83° East 450 518 36,900 -120 Descending FlightAware
10:19AM 40.2310 -96.0470 76° East 450 518 36,900 60 Level FlightAware
10:20AM 40.2510 -95.9340 77° East 449 517 37,000 60 Climbing FlightAware
10:21AM 40.2710 -95.8300 76° East 449 517 37,000 -120 Level FlightAware
10:21AM 40.2880 -95.7330 77° East 449 517 36,900  Descending FlightAware
10:22AM 40.3090 -95.6220 76° East 451 519 37,000 60 Climbing FlightAware
10:23AM 40.3280 -95.5170 77° East 451 519 37,000  Level FlightAware
10:23AM 40.3480 -95.4050 77° East 450 518 37,000  Level FlightAware
10:24AM 40.3690 -95.2880 77° East 449 517 37,000  Level FlightAware
10:25AM 40.3890 -95.1770 77° East 449 517 37,000  Level FlightAware
10:26AM 40.4090 -95.0620 77° East 448 516 37,000  Level FlightAware
10:26AM 40.4290 -94.9510 77° East 447 514 37,000  Level FlightAware
10:27AM 40.4460 -94.8500 77° East 446 513 37,000 -120 Level FlightAware
10:28AM 40.4660 -94.7360 77° East 446 513 36,900 -120 Descending FlightAware
10:28AM 40.4850 -94.6280 77° East 447 514 36,900  Level FlightAware
10:29AM 40.5020 -94.5290 77° East 449 517 36,900 60 Level FlightAware
10:30AM 40.5220 -94.4110 77° East 451 519 37,000 60 Climbing FlightAware
10:30AM 40.5400 -94.3090 77° East 453 521 37,000  Level FlightAware
10:31AM 40.5570 -94.2040 78° East 453 521 37,000  Level FlightAware
10:32AM 40.5770 -94.0890 77° East 453 521 37,000  Level FlightAware
10:32AM 40.5930 -93.9920 78° East 453 521 37,000  Level FlightAware
10:33AM 40.6150 -93.8510 78° East 454 522 37,000  Level FlightAware
10:34AM 40.6320 -93.7280 80° East 454 522 37,000  Level FlightAware
10:35AM 40.6500 -93.6090 79° East 454 522 37,000  Level FlightAware
10:35AM 40.6670 -93.4860 80° East 452 520 37,000 -120 Level FlightAware
10:36AM 40.6820 -93.3870 79° East 452 520 36,900  Descending FlightAware
10:37AM 40.6970 -93.2780 80° East 453 521 37,000 60 Climbing FlightAware
10:37AM 40.7130 -93.1710 79° East 453 521 37,000  Level FlightAware
10:38AM 40.7280 -93.0640 79° East 452 520 37,000  Level FlightAware
10:39AM 40.7420 -92.9610 80° East 454 522 37,000  Level FlightAware
10:39AM 40.7550 -92.8630 80° East 455 524 37,000  Level FlightAware
10:40AM 40.7730 -92.7390 79° East 455 524 37,000  Level FlightAware
10:41AM 40.7880 -92.6240 80° East 456 525 37,000  Level FlightAware
10:42AM 40.8040 -92.5070 80° East 455 524 37,000  Level FlightAware
10:42AM 40.8190 -92.3960 80° East 455 524 37,000 -360 Level FlightAware
10:43AM 40.8350 -92.2760 80° East 456 525 36,500 -900 Descending FlightAware
10:44AM 40.8480 -92.1770 80° East 461 531 35,800 -1,200 Descending FlightAware
10:44AM 40.8700 -92.0110 80° East 461 531 34,700 -1,140 Descending FlightAware
10:45AM 40.8860 -91.8870 80° East 453 521 33,900 -1,080 Descending FlightAware
10:46AM 40.9010 -91.7690 80° East 450 518 33,100 -1,140 Descending FlightAware
10:47AM 40.9140 -91.6660 80° East 442 509 32,400 -840 Descending FlightAware
10:47AM 40.9290 -91.5520 80° East 435 501 32,000 -300 Descending FlightAware
10:48AM 40.9430 -91.4380 81° East 436 502 32,000  Level FlightAware
10:49AM 40.9560 -91.3410 80° East 436 502 32,000 -420 Level FlightAware
10:49AM 40.9700 -91.2250 81° East 434 499 31,500 -1,500 Descending FlightAware
10:50AM 40.9840 -91.1110 81° East 438 504 29,900 -2,280 Descending FlightAware
10:51AM 40.9960 -91.0120 81° East 440 506 28,400 -2,340 Descending FlightAware
10:51AM 41.0090 -90.9060 81° East 440 506 26,900 -2,220 Descending FlightAware
10:52AM 41.0230 -90.7890 81° East 433 498 25,400 -2,040 Descending FlightAware
10:53AM 41.0350 -90.6880 81° East 428 493 24,100 -1,140 Descending FlightAware
10:54AM 41.0480 -90.5800 81° East 422 486 23,900 -780 Descending FlightAware
10:54AM 41.0600 -90.4810 81° East 425 489 23,100 -660 Descending FlightAware
10:55AM 41.0740 -90.3550 82° East 422 486 23,000 -120 Descending FlightAware
10:56AM 41.0830 -90.2760 81° East 418 481 23,000  Level FlightAware
10:56AM 41.0970 -90.1590 81° East 415 478 23,000  Level FlightAware
10:57AM 41.1090 -90.0500 82° East 410 472 23,000 -840 Level FlightAware
10:58AM 41.1200 -89.9490 82° East 411 473 21,900 -2,040 Descending FlightAware
10:58AM 41.1330 -89.8350 81° East 411 473 20,200 -2,100 Descending FlightAware
10:59AM 41.1440 -89.7350 82° East 405 466 18,900 -1,740 Descending FlightAware
11:00AM 41.1580 -89.6110 81° East 389 448 17,600 -1,620 Descending FlightAware
11:01AM 41.1650 -89.5160 84° East 383 441 16,500 -1,560 Descending FlightAware
11:01AM 41.1780 -89.4190 80° East 373 429 15,500 -1,200 Descending FlightAware
11:02AM 41.2080 -89.3330 65° Northeast 366 421 14,900 -960 Descending FlightAware
11:03AM 41.2350 -89.2530 66° East 364 419 14,200 -1,020 Descending FlightAware
11:03AM 41.2670 -89.1620 65° Northeast 360 414 13,500 -1,080 Descending FlightAware
11:04AM 41.2940 -89.0810 66° East 358 412 12,700 -1,320 Descending FlightAware
11:05AM 41.3280 -88.9790 66° East 351 404 11,500 -1,440 Descending FlightAware
11:06AM 41.3650 -88.8700 66° East 341 392 10,200 -1,200 Descending FlightAware
11:06AM 41.3800 -88.8250 66° East 325 374 9,900 -960 Descending FlightAware
11:07AM 41.3970 -88.7760 65° Northeast 317 365 9,400 -1,320 Descending FlightAware
11:07AM 41.4120 -88.7300 66° East 318 366 8,800 -1,500 Descending FlightAware
11:08AM 41.4280 -88.6820 66° East 316 364 8,100 -1,560 Descending FlightAware
11:08AM 41.4450 -88.6310 66° East 314 361 7,400 -1,500 Descending FlightAware
11:08AM 41.4540 -88.6050 65° Northeast 313 360 7,000 -1,560 Descending FlightAware
11:09AM 41.4680 -88.5620 67° East 312 359 6,400 -1,320 Descending FlightAware
11:09AM 41.4850 -88.5110 66° East 318 366 5,900 -540 Descending FlightAware
11:10AM 41.5010 -88.4600 67° East 321 369 5,900  Level FlightAware
11:10AM 41.5190 -88.4040 67° East 319 367 5,900 -240 Level FlightAware
11:12AM 41.5590 -88.1810 76° East 317 365 5,300 -420 Descending FlightAware
11:13AM 41.5630 -88.1250 85° East 312 359 5,000 -660 Descending FlightAware
11:13AM 41.5640 -88.1080 85° East 304 350 4,900 -180 Descending FlightAware
11:13AM 41.5680 -88.0560 84° East 275 316 4,900 -480 Level FlightAware
11:14AM 41.5710 -88.0080 85° East 266 306 4,500 -720 Descending FlightAware
11:14AM 41.5740 -87.9770 83° East 264 304 4,300 -900 Descending FlightAware
11:14AM 41.5750 -87.9530 87° East 264 304 4,000 -1,200 Descending FlightAware
11:15AM 41.5780 -87.9170 84° East 260 299 3,600 -960 Descending FlightAware
11:15AM 41.5810 -87.8830 83° East 258 297 3,300 -720 Descending FlightAware
11:16AM 41.5840 -87.8350 85° East 256 295 3,000 -420 Descending FlightAware
11:16AM 41.5880 -87.7930 83° East 240 276 2,900 -120 Descending FlightAware
11:17AM 41.5910 -87.7570 84° East 214 246 2,900  Level FlightAware
11:17AM 41.5940 -87.7280 82° East 209 241 2,900  Level FlightAware
11:17AM 41.5960 -87.7100 82° East 209 241 2,900  Level FlightAware
11:18AM 41.6000 -87.6700 82° East 206 237 2,900  Level FlightAware
11:18AM 41.5920 -87.6380 108° East 188 216 2,900  Level FlightAware
11:18AM 41.5850 -87.6270 130° Southeast 189 217 2,900  Level FlightAware
11:19AM 41.5720 -87.5940 118° Southeast 207 238 2,900  Level FlightAware
11:19AM 41.5860 -87.5620 60° Northeast 209 241 2,900  Level FlightAware
11:20AM 41.6100 -87.5390 36° Northeast 204 235 2,900  Level FlightAware
11:20AM 41.6170 -87.5370 12° North 196 226 2,900  Level FlightAware
11:20AM 41.6340 -87.5440 343° North 179 206 2,900  Level FlightAware
11:21AM 41.6490 -87.5610 320° Northwest 174 200 2,900  Level FlightAware
11:21AM 41.6640 -87.5820 314° West 171 197 2,900  Level FlightAware
11:22AM 41.6790 -87.6030 314° West 175 201 2,900  Level FlightAware
11:22AM 41.6930 -87.6220 315° West 177 204 2,900 -480 Level FlightAware
11:23AM 41.7080 -87.6440 312° West 176 203 2,500 -1,080 Descending FlightAware
11:23AM 41.7170 -87.6560 315° West 175 201 2,200 -960 Descending FlightAware
11:23AM 41.7330 -87.6790 313° West 165 190 1,800 -780 Descending FlightAware
11:24AM 41.7530 -87.7060 315° West 124 143 1,300 -720 Descending FlightAware
11:24AM 41.7620 -87.7200 311° West 120 138 1,000 -660 Descending FlightAware
11:25AM 41.7750 -87.7370 316° Northwest 123 142 700 -120 Descending FlightAware
11:26AM 41.7897 -87.7600 316° Northwest 144 166 900 300 Climbing Chicago Center